createdAt,value
2022-07-28T00:00:08.304Z,1.70
2022-07-28T00:02:35.989Z,1.60
2022-07-28T00:05:03.727Z,1.60
2022-07-28T00:07:30.927Z,2.07
2022-07-28T00:10:00.591Z,1.80
2022-07-28T00:12:28.142Z,1.60
2022-07-28T00:14:55.165Z,1.60
2022-07-28T00:17:22.217Z,1.90
2022-07-28T00:19:49.474Z,1.60
2022-07-28T00:22:16.983Z,1.80
2022-07-28T00:24:44.067Z,1.70
2022-07-28T00:27:11.211Z,1.90
2022-07-28T00:29:49.798Z,1.60
2022-07-28T00:32:17.513Z,1.73
2022-07-28T00:34:44.955Z,1.70
2022-07-28T00:37:14.544Z,1.80
2022-07-28T00:39:42.445Z,1.90
2022-07-28T00:42:09.693Z,2.10
2022-07-28T00:44:39.096Z,2.07
2022-07-28T00:47:06.497Z,1.90
2022-07-28T00:49:33.741Z,1.77
2022-07-28T00:52:01.368Z,1.87
2022-07-28T00:54:28.430Z,1.87
2022-07-28T00:56:55.681Z,1.83
2022-07-28T00:59:22.871Z,2.00
2022-07-28T01:01:50.231Z,1.73
2022-07-28T01:04:22.041Z,1.70
2022-07-28T01:07:19.260Z,1.50
2022-07-28T01:10:13.397Z,1.87
2022-07-28T01:13:10.773Z,1.70
2022-07-28T01:15:55.609Z,1.60
2022-07-28T01:18:26.862Z,1.70
2022-07-28T01:21:04.382Z,1.80
2022-07-28T01:24:08.350Z,1.83
2022-07-28T01:27:24.087Z,2.00
2022-07-28T01:30:06.312Z,2.03
2022-07-28T01:32:40.439Z,1.70
2022-07-28T01:35:18.105Z,2.03
2022-07-28T01:37:49.188Z,2.00
2022-07-28T01:40:20.655Z,1.80
2022-07-28T01:42:50.803Z,2.00
2022-07-28T01:45:19.825Z,2.07
2022-07-28T01:47:47.996Z,1.67
2022-07-28T01:50:18.145Z,1.90
2022-07-28T01:52:47.397Z,1.77
2022-07-28T01:55:16.894Z,2.00
2022-07-28T01:57:45.098Z,1.90
2022-07-28T02:00:14.132Z,2.00
2022-07-28T02:02:46.018Z,1.90
2022-07-28T02:05:16.891Z,1.90
2022-07-28T02:07:49.433Z,1.90
2022-07-28T02:10:18.362Z,2.00
2022-07-28T02:12:48.585Z,1.93
2022-07-28T02:15:16.582Z,1.80
2022-07-28T02:17:47.135Z,2.10
2022-07-28T02:20:16.443Z,1.93
2022-07-28T02:22:44.486Z,1.80
2022-07-28T02:25:19.143Z,1.97
2022-07-28T02:28:06.650Z,2.00
2022-07-28T02:30:47.064Z,2.40
2022-07-28T02:33:58.792Z,2.10
2022-07-28T02:36:16.307Z,2.40
2022-07-28T02:38:46.707Z,2.10
2022-07-28T02:41:25.803Z,2.07
2022-07-28T02:43:58.226Z,1.73
2022-07-28T02:46:29.188Z,1.93
2022-07-28T02:49:06.516Z,1.70
2022-07-28T02:51:36.275Z,2.23
2022-07-28T02:54:04.742Z,2.10
2022-07-28T02:56:32.963Z,2.43
2022-07-28T02:59:00.995Z,1.97
2022-07-28T03:01:28.998Z,1.90
2022-07-28T03:03:57.559Z,1.93
2022-07-28T03:06:28.495Z,2.03
2022-07-28T03:08:57.421Z,2.43
2022-07-28T03:11:24.900Z,2.80
2022-07-28T03:13:52.073Z,2.30
2022-07-28T03:16:19.451Z,2.20
2022-07-28T03:18:46.659Z,2.33
2022-07-28T03:21:13.823Z,2.33
2022-07-28T03:23:43.722Z,2.17
2022-07-28T03:26:25.758Z,2.47
2022-07-28T03:28:55.859Z,2.20
2022-07-28T03:31:25.689Z,2.50
2022-07-28T03:33:52.901Z,2.20
2022-07-28T03:36:26.920Z,2.27
2022-07-28T03:39:03.922Z,2.20
2022-07-28T03:41:33.609Z,2.20
2022-07-28T03:44:02.669Z,2.17
2022-07-28T03:46:29.898Z,2.37
2022-07-28T03:48:57.031Z,2.10
2022-07-28T03:51:25.638Z,2.47
2022-07-28T03:53:53.016Z,2.50
2022-07-28T03:56:19.993Z,2.20
2022-07-28T03:58:47.092Z,2.47
2022-07-28T04:01:14.247Z,2.37
2022-07-28T04:03:43.900Z,2.50
2022-07-28T04:06:12.819Z,2.43
2022-07-28T04:08:39.917Z,2.40
2022-07-28T04:11:07.605Z,2.37
2022-07-28T04:13:36.870Z,2.90
2022-07-28T04:16:04.881Z,2.43
2022-07-28T04:18:31.970Z,2.70
2022-07-28T04:20:59.071Z,2.40
2022-07-28T04:23:26.353Z,2.03
2022-07-28T04:25:53.495Z,2.63
2022-07-28T04:28:20.508Z,2.47
2022-07-28T04:30:47.717Z,2.00
2022-07-28T04:33:14.859Z,2.80
2022-07-28T04:35:42.019Z,2.60
2022-07-28T04:38:09.075Z,2.83
2022-07-28T04:40:36.123Z,2.53
2022-07-28T04:43:04.061Z,2.53
2022-07-28T04:45:31.297Z,2.60
2022-07-28T04:47:58.383Z,2.87
2022-07-28T04:50:25.618Z,2.70
2022-07-28T04:52:58.949Z,2.93
2022-07-28T04:55:26.543Z,2.60
2022-07-28T04:57:53.516Z,2.63
2022-07-28T05:00:22.771Z,2.20
2022-07-28T05:02:50.278Z,2.60
2022-07-28T05:05:17.966Z,2.70
2022-07-28T05:07:45.099Z,2.47
2022-07-28T05:10:12.862Z,2.80
2022-07-28T05:12:39.985Z,3.07
2022-07-28T05:15:08.485Z,2.50
2022-07-28T05:17:37.046Z,2.57
2022-07-28T05:20:05.689Z,2.33
2022-07-28T05:23:04.152Z,2.17
2022-07-28T05:25:31.370Z,2.60
2022-07-28T05:27:58.382Z,2.43
2022-07-28T05:30:25.722Z,2.23
2022-07-28T05:32:54.099Z,2.67
2022-07-28T05:35:21.237Z,2.33
2022-07-28T05:37:48.329Z,2.43
2022-07-28T05:40:15.968Z,2.80
2022-07-28T05:42:43.926Z,2.00
2022-07-28T05:45:15.767Z,3.10
2022-07-28T05:47:52.995Z,2.53
2022-07-28T05:50:22.248Z,2.27
2022-07-28T05:52:50.278Z,2.40
2022-07-28T05:55:17.921Z,2.53
2022-07-28T05:57:45.151Z,2.50
2022-07-28T06:00:15.209Z,2.20
2022-07-28T06:02:45.480Z,2.47
2022-07-28T06:05:13.392Z,2.80
2022-07-28T06:07:43.676Z,2.70
2022-07-28T06:10:17.415Z,2.60
2022-07-28T06:12:46.570Z,2.17
2022-07-28T06:15:22.268Z,2.70
2022-07-28T06:17:55.691Z,2.63
2022-07-28T06:20:27.947Z,2.40
2022-07-28T06:22:56.018Z,2.60
2022-07-28T06:25:25.345Z,2.67
2022-07-28T06:27:55.020Z,2.60
2022-07-28T06:30:23.312Z,2.60
2022-07-28T06:32:51.165Z,2.90
2022-07-28T06:35:18.723Z,2.87
2022-07-28T06:37:50.030Z,3.07
2022-07-28T06:40:19.065Z,2.40
2022-07-28T06:42:46.480Z,3.23
2022-07-28T06:45:19.600Z,2.30
2022-07-28T06:47:50.291Z,2.30
2022-07-28T06:50:25.630Z,2.63
2022-07-28T06:52:55.510Z,2.97
2022-07-28T06:55:22.782Z,2.60
2022-07-28T06:57:49.798Z,2.60
2022-07-28T07:00:17.282Z,2.60
2022-07-28T07:02:44.318Z,2.70
2022-07-28T07:05:12.893Z,2.60
2022-07-28T07:07:43.277Z,2.73
2022-07-28T07:10:11.896Z,2.90
2022-07-28T07:12:39.354Z,2.43
2022-07-28T07:15:07.811Z,2.67
2022-07-28T07:17:37.428Z,2.80
2022-07-28T07:20:06.499Z,2.40
2022-07-28T07:22:33.695Z,2.90
2022-07-28T07:25:11.320Z,2.50
2022-07-28T07:27:39.184Z,2.70
2022-07-28T07:30:07.985Z,3.17
2022-07-28T07:32:36.795Z,2.73
2022-07-28T07:35:04.933Z,2.83
2022-07-28T07:37:34.624Z,2.83
2022-07-28T07:40:03.656Z,2.90
2022-07-28T07:42:30.748Z,3.03
2022-07-28T07:44:57.753Z,2.67
2022-07-28T07:47:24.766Z,3.30
2022-07-28T07:49:51.906Z,3.30
2022-07-28T07:52:18.963Z,2.80
2022-07-28T07:54:46.186Z,2.97
2022-07-28T07:57:13.409Z,2.53
2022-07-28T07:59:40.484Z,3.17
2022-07-28T08:02:07.691Z,2.87
2022-07-28T08:04:38.289Z,3.90
2022-07-28T08:07:06.660Z,3.43
2022-07-28T08:09:34.601Z,3.20
2022-07-28T08:12:01.698Z,3.17
2022-07-28T08:14:28.917Z,2.90
2022-07-28T08:16:56.794Z,2.60
2022-07-28T08:19:24.358Z,2.70
2022-07-28T08:21:51.535Z,3.10
2022-07-28T08:24:32.758Z,2.97
2022-07-28T08:27:04.942Z,3.00
2022-07-28T08:29:32.646Z,3.27
2022-07-28T08:32:01.480Z,3.40
2022-07-28T08:34:33.061Z,3.20
2022-07-28T08:37:03.382Z,3.20
2022-07-28T08:39:31.925Z,3.30
2022-07-28T08:42:24.733Z,3.43
2022-07-28T08:45:05.860Z,4.03
2022-07-28T08:47:46.094Z,3.20
2022-07-28T08:50:24.311Z,3.20
2022-07-28T08:52:53.066Z,3.93
2022-07-28T08:55:25.623Z,3.10
2022-07-28T08:58:00.338Z,3.90
2022-07-28T09:00:28.186Z,3.23
2022-07-28T09:02:55.654Z,3.53
2022-07-28T09:05:23.916Z,3.30
2022-07-28T09:07:54.942Z,3.10
2022-07-28T09:10:23.009Z,3.50
2022-07-28T09:12:50.055Z,3.50
2022-07-28T09:15:17.297Z,3.67
2022-07-28T09:17:44.365Z,3.37
2022-07-28T09:20:12.249Z,3.50
2022-07-28T09:23:02.925Z,3.40
2022-07-28T09:25:30.984Z,3.33
2022-07-28T09:28:12.989Z,3.33
2022-07-28T09:30:53.920Z,3.10
2022-07-28T09:33:42.604Z,3.60
2022-07-28T09:36:15.790Z,3.20
2022-07-28T09:38:43.045Z,3.17
2022-07-28T09:41:10.120Z,2.80
2022-07-28T09:43:42.481Z,3.60
2022-07-28T09:46:24.710Z,3.07
2022-07-28T09:49:01.426Z,3.13
2022-07-28T09:51:30.898Z,3.53
2022-07-28T09:54:15.620Z,3.20
2022-07-28T09:56:45.918Z,2.87
2022-07-28T09:59:14.570Z,3.60
2022-07-28T10:01:59.110Z,3.07
2022-07-28T10:04:37.936Z,3.10
2022-07-28T10:07:10.321Z,3.30
2022-07-28T10:09:38.779Z,3.40
2022-07-28T10:12:25.596Z,3.30
2022-07-28T10:14:54.970Z,3.43
2022-07-28T10:17:40.054Z,3.67
2022-07-28T10:20:08.471Z,3.70
2022-07-28T10:22:42.944Z,3.10
2022-07-28T10:25:14.424Z,3.33
2022-07-28T10:27:42.553Z,2.90
2022-07-28T10:30:11.005Z,2.83
2022-07-28T10:32:45.232Z,3.03
2022-07-28T10:35:15.239Z,3.00
2022-07-28T10:37:54.418Z,3.10
2022-07-28T10:40:27.146Z,2.83
2022-07-28T10:42:55.190Z,2.63
2022-07-28T10:45:22.661Z,2.63
2022-07-28T10:47:50.264Z,2.80
2022-07-28T10:50:18.627Z,2.27
2022-07-28T10:52:49.857Z,3.87
2022-07-28T10:55:49.094Z,2.60
2022-07-28T10:59:05.067Z,2.47
2022-07-28T11:01:49.588Z,3.30
2022-07-28T11:05:06.833Z,2.70
2022-07-28T11:07:40.079Z,2.60
2022-07-28T11:10:17.736Z,2.20
2022-07-28T11:12:49.216Z,2.93
2022-07-28T11:15:45.651Z,2.47
2022-07-28T11:18:13.341Z,2.60
2022-07-28T11:21:16.482Z,2.87
2022-07-28T11:23:50.172Z,3.30
2022-07-28T11:26:36.156Z,3.00
2022-07-28T11:29:23.760Z,3.07
2022-07-28T11:32:00.551Z,2.57
2022-07-28T11:34:27.813Z,3.00
2022-07-28T11:37:20.933Z,2.83
2022-07-28T11:39:47.958Z,2.60
2022-07-28T11:42:44.067Z,2.60
2022-07-28T11:45:35.932Z,2.40
2022-07-28T11:48:21.441Z,3.03
2022-07-28T11:51:24.113Z,2.40
2022-07-28T11:53:54.071Z,2.47
2022-07-28T11:56:29.473Z,2.40
2022-07-28T11:59:04.229Z,2.57
2022-07-28T12:01:32.546Z,2.60
2022-07-28T12:04:12.179Z,2.30
2022-07-28T12:06:42.730Z,2.10
2022-07-28T12:09:11.346Z,2.23
2022-07-28T12:11:42.437Z,2.27
2022-07-28T12:14:18.534Z,2.20
2022-07-28T12:16:50.011Z,2.47
2022-07-28T12:19:18.684Z,2.47
2022-07-28T12:21:49.372Z,2.33
2022-07-28T12:24:30.463Z,2.20
2022-07-28T12:26:59.673Z,2.13
2022-07-28T12:29:36.194Z,2.30
2022-07-28T12:32:06.630Z,2.33
2022-07-28T12:34:35.163Z,2.23
2022-07-28T12:37:05.277Z,2.40
2022-07-28T12:39:36.885Z,2.10
2022-07-28T12:42:06.463Z,2.30
2022-07-28T12:44:44.417Z,2.17
2022-07-28T12:47:13.439Z,2.90
2022-07-28T12:49:42.627Z,2.15
2022-07-28T12:52:17.837Z,2.50
2022-07-28T12:54:52.116Z,2.70
2022-07-28T12:57:48.122Z,2.47
2022-07-28T13:00:19.623Z,2.13
2022-07-28T13:02:47.819Z,2.70
2022-07-28T13:05:28.692Z,2.17
2022-07-28T13:08:03.383Z,2.37
2022-07-28T13:10:32.274Z,2.37
2022-07-28T13:13:05.096Z,2.40
2022-07-28T13:15:32.314Z,2.10
2022-07-28T13:18:00.049Z,2.00
2022-07-28T13:20:27.725Z,2.55
2022-07-28T13:22:55.927Z,2.22
2022-07-28T13:25:23.142Z,2.25
2022-07-28T13:27:55.165Z,2.10
2022-07-28T13:30:23.390Z,2.50
2022-07-28T13:32:50.649Z,2.30
2022-07-28T13:35:18.876Z,2.42
2022-07-28T13:37:48.554Z,2.58
2022-07-28T13:40:15.690Z,2.10
2022-07-28T13:42:53.152Z,2.20
2022-07-28T13:45:24.586Z,3.00
2022-07-28T13:47:52.265Z,2.70
2022-07-28T13:50:20.934Z,2.55
2022-07-28T13:52:48.592Z,2.13
2022-07-28T13:55:19.615Z,2.30
2022-07-28T13:57:50.401Z,2.33
2022-07-28T14:00:22.729Z,2.30
2022-07-28T14:02:50.175Z,2.33
2022-07-28T14:05:17.394Z,2.08
2022-07-28T14:07:48.443Z,2.30
2022-07-28T14:10:18.053Z,2.20
2022-07-28T14:12:46.357Z,2.08
2022-07-28T14:15:14.406Z,2.50
2022-07-28T14:17:43.447Z,2.03
2022-07-28T14:20:13.864Z,2.72
2022-07-28T14:22:41.482Z,2.25
2022-07-28T14:25:09.055Z,2.28
2022-07-28T14:27:36.456Z,2.38
2022-07-28T14:30:04.739Z,2.20
2022-07-28T14:32:32.861Z,2.53
2022-07-28T14:35:02.209Z,2.40
2022-07-28T14:37:47.067Z,2.60
2022-07-28T14:40:18.181Z,2.60
2022-07-28T14:42:45.280Z,2.37
2022-07-28T14:45:12.644Z,2.40
2022-07-28T14:47:44.719Z,3.07
2022-07-28T14:50:13.260Z,2.37
2022-07-28T14:52:40.550Z,2.80
2022-07-28T14:55:12.247Z,2.47
2022-07-28T14:57:51.831Z,2.50
2022-07-28T15:00:22.751Z,2.33
2022-07-28T15:02:51.657Z,2.53
2022-07-28T15:05:19.555Z,2.33
2022-07-28T15:07:49.448Z,2.40
2022-07-28T15:10:16.800Z,2.43
2022-07-28T15:12:44.422Z,2.40
2022-07-28T15:15:11.964Z,2.27
2022-07-28T15:17:38.997Z,2.77
2022-07-28T15:20:07.362Z,2.20
2022-07-28T15:22:35.201Z,2.23
2022-07-28T15:25:04.117Z,2.13
2022-07-28T15:27:33.639Z,2.47
2022-07-28T15:30:02.700Z,2.23
2022-07-28T15:32:31.433Z,2.22
2022-07-28T15:34:58.949Z,2.10
2022-07-28T15:37:28.027Z,2.27
2022-07-28T15:39:55.299Z,2.47
2022-07-28T15:42:22.315Z,2.30
2022-07-28T15:44:49.450Z,2.47
2022-07-28T15:47:16.625Z,2.30
2022-07-28T15:49:43.731Z,2.40
2022-07-28T15:52:10.768Z,2.30
2022-07-28T15:54:37.861Z,2.90
2022-07-28T15:57:05.015Z,2.73
2022-07-28T15:59:50.020Z,2.77
2022-07-28T16:02:18.595Z,2.87
2022-07-28T16:04:53.601Z,2.70
2022-07-28T16:07:28.273Z,2.63
2022-07-28T16:09:55.783Z,2.80
2022-07-28T16:12:25.298Z,2.60
2022-07-28T16:14:54.093Z,2.80
2022-07-28T16:17:24.442Z,2.57
2022-07-28T16:19:52.057Z,3.13
2022-07-28T16:22:19.907Z,2.40
2022-07-28T16:24:47.465Z,2.70
2022-07-28T16:27:14.927Z,2.37
2022-07-28T16:29:42.591Z,2.17
2022-07-28T16:32:09.772Z,2.20
2022-07-28T16:34:36.811Z,2.63
2022-07-28T16:37:05.101Z,2.87
2022-07-28T16:39:33.993Z,2.40
2022-07-28T16:42:01.583Z,2.03
2022-07-28T16:44:29.262Z,2.40
2022-07-28T16:46:56.670Z,2.40
2022-07-28T16:49:24.689Z,2.43
2022-07-28T16:51:51.787Z,2.40
2022-07-28T16:54:19.477Z,2.50
2022-07-28T16:56:46.869Z,2.50
2022-07-28T16:59:14.190Z,2.47
2022-07-28T17:01:45.860Z,2.23
2022-07-28T17:04:14.873Z,2.47
2022-07-28T17:06:42.426Z,2.40
2022-07-28T17:09:10.137Z,2.50
2022-07-28T17:11:37.330Z,2.47
2022-07-28T17:14:04.933Z,3.00
2022-07-28T17:16:32.187Z,2.30
2022-07-28T17:18:59.602Z,2.00
2022-07-28T17:21:27.181Z,2.53
2022-07-28T17:23:54.627Z,2.30
2022-07-28T17:29:09.898Z,2.43
2022-07-28T17:31:38.486Z,2.20
2022-07-28T17:34:05.848Z,2.43
2022-07-28T17:36:35.468Z,2.50
2022-07-28T17:39:03.544Z,2.30
2022-07-28T17:41:30.690Z,2.50
2022-07-28T17:43:57.987Z,2.97
2022-07-28T17:46:26.466Z,2.90
2022-07-28T17:48:54.357Z,3.93
2022-07-28T17:51:21.597Z,3.13
2022-07-28T17:53:48.961Z,4.30
2022-07-28T17:56:17.867Z,3.30
2022-07-28T17:58:45.558Z,3.23
2022-07-28T18:01:15.290Z,3.57
2022-07-28T18:03:57.649Z,2.93
2022-07-28T18:06:34.500Z,2.90
2022-07-28T18:09:08.224Z,3.10
2022-07-28T18:11:37.739Z,3.70
2022-07-28T18:14:28.485Z,3.23
2022-07-28T18:16:56.535Z,3.50
2022-07-28T18:19:23.569Z,3.30
2022-07-28T18:21:50.793Z,3.60
2022-07-28T18:24:18.789Z,3.10
2022-07-28T18:26:46.083Z,3.27
2022-07-28T18:29:13.186Z,3.20
2022-07-28T18:31:45.919Z,2.90
2022-07-28T18:34:15.366Z,3.00
2022-07-28T18:36:42.857Z,3.53
2022-07-28T18:39:09.977Z,3.40
2022-07-28T18:41:46.428Z,3.20
2022-07-28T18:44:19.791Z,3.13
2022-07-28T18:46:47.607Z,3.87
2022-07-28T18:49:15.070Z,3.00
2022-07-28T18:51:44.983Z,3.30
2022-07-28T18:54:15.101Z,3.10
2022-07-28T18:56:44.837Z,3.20
2022-07-28T18:59:12.130Z,3.17
2022-07-28T19:01:39.200Z,2.83
2022-07-28T19:04:06.899Z,3.13
2022-07-28T19:06:35.052Z,3.03
2022-07-28T19:09:02.495Z,2.90
2022-07-28T19:11:32.223Z,2.90
2022-07-28T19:14:00.246Z,2.43
2022-07-28T19:16:27.651Z,3.10
2022-07-28T19:18:54.754Z,2.87
2022-07-28T19:21:21.792Z,2.47
2022-07-28T19:23:49.267Z,2.60
2022-07-28T19:26:16.319Z,3.30
2022-07-28T19:28:43.689Z,2.70
2022-07-28T19:31:11.075Z,3.10
2022-07-28T19:33:38.527Z,2.70
2022-07-28T19:36:13.738Z,3.07
2022-07-28T19:38:41.445Z,2.83
2022-07-28T19:41:09.120Z,2.80
2022-07-28T19:43:36.346Z,2.33
2022-07-28T19:46:03.454Z,2.70
2022-07-28T19:48:30.510Z,4.60
2022-07-28T19:50:57.550Z,3.57
2022-07-28T19:53:31.850Z,2.97
2022-07-28T19:55:59.538Z,2.60
2022-07-28T19:58:26.645Z,2.70
2022-07-28T20:00:54.511Z,2.27
2022-07-28T20:04:03.069Z,2.40
2022-07-28T20:06:11.055Z,2.87
2022-07-28T20:08:38.591Z,2.70
2022-07-28T20:11:05.639Z,2.70
2022-07-28T20:13:33.437Z,2.70
2022-07-28T20:16:01.156Z,2.80
2022-07-28T20:18:29.374Z,2.50
2022-07-28T20:20:56.441Z,2.73
2022-07-28T20:23:23.954Z,2.57
2022-07-28T20:25:50.947Z,2.77
2022-07-28T20:28:17.953Z,2.27
2022-07-28T20:30:45.099Z,2.80
2022-07-28T20:33:12.316Z,2.50
2022-07-28T20:35:39.332Z,2.73
2022-07-28T20:38:08.294Z,2.47
2022-07-28T20:40:35.684Z,2.53
2022-07-28T20:43:02.893Z,2.70
2022-07-28T20:45:31.741Z,2.70
2022-07-28T20:47:58.735Z,2.40
2022-07-28T20:50:26.080Z,2.40
2022-07-28T20:52:53.127Z,2.30
2022-07-28T20:55:20.842Z,2.50
2022-07-28T20:57:53.082Z,2.70
2022-07-28T21:00:21.146Z,2.90
2022-07-28T21:02:48.265Z,3.00
2022-07-28T21:05:26.482Z,3.30
2022-07-28T21:08:05.781Z,3.20
2022-07-28T21:10:36.177Z,3.00
2022-07-28T21:13:03.235Z,3.37
2022-07-28T21:15:30.467Z,3.17
2022-07-28T21:17:57.498Z,3.17
2022-07-28T21:20:25.138Z,3.47
2022-07-28T21:22:52.481Z,3.40
2022-07-28T21:25:19.856Z,3.63
2022-07-28T21:28:05.284Z,3.77
2022-07-28T21:30:32.559Z,3.23
2022-07-28T21:32:59.663Z,3.13
2022-07-28T21:35:26.965Z,3.40
2022-07-28T21:37:53.994Z,3.17
2022-07-28T21:40:21.066Z,3.00
2022-07-28T21:42:48.318Z,3.57
2022-07-28T21:45:15.633Z,3.60
2022-07-28T21:47:42.752Z,3.37
2022-07-28T21:50:10.731Z,3.57
2022-07-28T21:52:38.001Z,3.40
2022-07-28T21:55:06.601Z,3.87
2022-07-28T21:57:34.737Z,4.07
2022-07-28T22:00:02.270Z,4.13
2022-07-28T22:02:29.278Z,3.80
2022-07-28T22:04:56.397Z,4.17
2022-07-28T22:07:23.565Z,4.00
2022-07-28T22:09:50.582Z,4.10
2022-07-28T22:12:17.671Z,4.13
2022-07-28T22:14:44.795Z,3.93
2022-07-28T22:17:11.777Z,4.30
2022-07-28T22:19:38.963Z,4.43
2022-07-28T22:22:05.950Z,3.57
2022-07-28T22:24:33.086Z,4.30
2022-07-28T22:27:00.136Z,4.20
2022-07-28T22:29:30.991Z,4.30
2022-07-28T22:31:59.487Z,4.10
2022-07-28T22:34:27.589Z,4.00
2022-07-28T22:36:54.733Z,4.37
2022-07-28T22:39:22.112Z,4.10
2022-07-28T22:41:49.188Z,3.93
2022-07-28T22:44:16.979Z,3.80
2022-07-28T22:46:44.813Z,4.10
2022-07-28T22:49:11.961Z,4.43
2022-07-28T22:51:39.029Z,4.00
2022-07-28T22:54:08.384Z,3.87
2022-07-28T22:56:37.524Z,4.37
2022-07-28T22:59:05.285Z,4.20
2022-07-28T23:01:33.021Z,4.60
2022-07-28T23:04:01.419Z,4.60
2022-07-28T23:06:29.173Z,4.23
2022-07-28T23:08:56.328Z,4.87
2022-07-28T23:11:23.374Z,4.90
2022-07-28T23:13:50.426Z,4.47
2022-07-28T23:16:17.517Z,4.30
2022-07-28T23:18:45.199Z,4.93
2022-07-28T23:21:12.940Z,4.40
2022-07-28T23:23:40.085Z,4.40
2022-07-28T23:26:07.299Z,4.53
2022-07-28T23:28:36.411Z,4.60
2022-07-28T23:31:04.736Z,4.30
2022-07-28T23:33:56.730Z,5.03
2022-07-28T23:36:27.256Z,4.90
2022-07-28T23:38:59.084Z,4.17
2022-07-28T23:41:27.071Z,4.33
2022-07-28T23:43:54.216Z,4.67
2022-07-28T23:46:21.398Z,4.30
2022-07-28T23:48:49.553Z,4.13
2022-07-28T23:51:16.724Z,4.57
2022-07-28T23:53:43.974Z,4.40
2022-07-28T23:56:11.102Z,4.73
2022-07-28T23:58:38.173Z,4.50
